Wetterdaten: Mai 2011
Datum Temp Feuchte Luftdruck Regen Wind Richtung Sonnenschein UV Solar Windben
01.05.2011 9,3 C 58 % 1012,5 hPa 0,0 l/m 4,6 km/h NO 12,33 h 3,2 UV-I 476 W/m 11,6 km/h
02.05.2011 5,8 C 77 % 1012,2 hPa 0,0 l/m 7,4 km/h N-NO 7,42 h 2,5 UV-I 369 W/m 20,1 km/h
03.05.2011 5,0 C 65 % 1016,3 hPa 0,0 l/m 4,4 km/h N-NO 10,75 h 3,0 UV-I 464 W/m 10,9 km/h
04.05.2011 5,0 C 86 % 1021,2 hPa 0,4 l/m 2,2 km/h N-NW 4,10 h 2,2 UV-I 284 W/m 8,0 km/h
05.05.2011 8,5 C 66 % 1024,0 hPa 0,2 l/m 0,2 km/h SO 12,08 h 3,2 UV-I 468 W/m 2,0 km/h
06.05.2011 13,4 C 57 % 1021,0 hPa 0,0 l/m 5,6 km/h S-SO 11,42 h 3,0 UV-I 413 W/m 8,9 km/h
07.05.2011 18,0 C 44 % 1020,1 hPa 0,0 l/m 12,6 km/h SO 12,08 h 2,9 UV-I 422 W/m 22,5 km/h
08.05.2011 17,9 C 50 % 1020,8 hPa 0,0 l/m 13,4 km/h SO 12,67 h 3,2 UV-I 480 W/m 26,9 km/h
09.05.2011 17,8 C 50 % 1023,6 hPa 0,0 l/m 10,7 km/h SO 12,17 h 3,3 UV-I 461 W/m 16,9 km/h
10.05.2011 17,7 C 57 % 1023,4 hPa 0,0 l/m 1,5 km/h S 11,50 h 3,1 UV-I 428 W/m 4,0 km/h
11.05.2011 15,5 C 69 % 1019,8 hPa 0,0 l/m 3,1 km/h NW 9,92 h 3,0 UV-I 413 W/m 8,4 km/h
12.05.2011 11,9 C 81 % 1016,7 hPa 0,6 l/m 1,2 km/h N-NW 4,75 h 2,6 UV-I 300 W/m 5,6 km/h
13.05.2011 12,1 C 71 % 1019,8 hPa 0,0 l/m 2,4 km/h W-NW 8,83 h 3,0 UV-I 393 W/m 7,7 km/h
14.05.2011 12,3 C 61 % 1014,4 hPa 0,0 l/m 7,6 km/h NW 6,17 h 2,5 UV-I 321 W/m 17,3 km/h
15.05.2011 9,1 C 86 % 1020,2 hPa 5,2 l/m 3,6 km/h N-NW 4,92 h 2,6 UV-I 292 W/m 11,6 km/h
16.05.2011 10,0 C 95 % 1020,5 hPa 8,0 l/m 9,1 km/h S-SW 0,00 h 1,1 UV-I 97 W/m 18,9 km/h
17.05.2011 11,8 C 91 % 1019,2 hPa 1,8 l/m 4,7 km/h S-SW 0,08 h 0,9 UV-I 84 W/m 10,1 km/h
18.05.2011 13,9 C 84 % 1016,1 hPa 0,2 l/m 0,9 km/h S 10,50 h 2,9 UV-I 378 W/m 3,2 km/h
19.05.2011 15,7 C 84 % 1016,5 hPa 0,0 l/m 1,3 km/h N-NW 6,33 h 2,4 UV-I 304 W/m 4,8 km/h
20.05.2011 15,6 C 80 % 1017,6 hPa 0,2 l/m 2,5 km/h S-SW 9,25 h 2,9 UV-I 371 W/m 7,2 km/h
21.05.2011 17,0 C 77 % 1019,1 hPa 0,0 l/m 0,8 km/h N-NO 7,75 h 2,7 UV-I 346 W/m 4,0 km/h
22.05.2011 15,5 C 66 % 1016,5 hPa 0,2 l/m 8,1 km/h S 6,33 h 2,4 UV-I 290 W/m 14,9 km/h
23.05.2011 14,4 C 63 % 1021,8 hPa 0,0 l/m 2,9 km/h S-SW 11,92 h 3,7 UV-I 473 W/m 9,3 km/h
24.05.2011 13,3 C 55 % 1023,3 hPa 0,2 l/m 5,9 km/h S 7,17 h 2,9 UV-I 332 W/m 14,1 km/h
25.05.2011 13,7 C 55 % 1024,3 hPa 0,0 l/m 2,2 km/h SO 13,00 h 3,6 UV-I 488 W/m 7,6 km/h
26.05.2011 16,7 C 50 % 1009,3 hPa 0,0 l/m 11,8 km/h S-SO 9,33 h 3,2 UV-I 400 W/m 24,1 km/h
27.05.2011 12,0 C 77 % 1013,5 hPa 0,6 l/m 6,3 km/h S-SW 1,25 h 1,7 UV-I 165 W/m 16,1 km/h
28.05.2011 12,7 C 69 % 1014,6 hPa 0,0 l/m 3,8 km/h S-SW 5,50 h 2,8 UV-I 325 W/m 10,8 km/h
29.05.2011 15,4 C 72 % 1014,0 hPa 0,0 l/m 5,9 km/h S-SW 6,25 h 3,1 UV-I 327 W/m 11,7 km/h
30.05.2011 21,7 C 54 % 1011,1 hPa 0,0 l/m 6,1 km/h S 13,00 h 3,8 UV-I 477 W/m 12,0 km/h
31.05.2011 12,8 C 90 % 1014,7 hPa 6,8 l/m 5,9 km/h N-NW 0,83 h 1,1 UV-I 103 W/m 14,5 km/h
Min-Datum 04.05.11 08.05.11 26.05.11 12 Tage 01.05.11 - - - - 03.05.11
Min-Zeit 05:40 15:50 15:20 - 22:55 - - - - 18:20
Minimum -2,0 C 27 % 1005,9 hPa - 0,0 km/h - - - - 0,0 km/h
Max-Datum 30.05.11 18.05.11 25.05.11 16.05.11 26.05.11 - 25.05.11 29.05.11 24.05.11 15.05.11
Max-Zeit 16:00 06:55 08:20 03:15 14:45 - 19:50 12:55 13:45 14:55
Maximum 27,8 C 99 % 1029,0 hPa 8,0 l/m 30,9 km/h
S-SO
- 12,92 h 7,6 UV-I 1099 W/m 53,1 km/h
NW
Durchschnitt 13,3 C 69 % 1018,0 hPa #24,4 l/m 5,1 km/h S #249:36 h 2,7 UV-I 353 W/m 11,8 km/h

Durchschnitt Minimum Temp.6,8 C
Durchschnitt Maximum Temp.19,3 C